createdAt,value
2018-06-22T00:02:43.718Z,2.63
2018-06-22T00:05:13.965Z,2.20
2018-06-22T00:07:54.770Z,2.73
2018-06-22T00:10:27.614Z,2.60
2018-06-22T00:12:59.003Z,2.37
2018-06-22T00:15:33.399Z,2.30
2018-06-22T00:18:04.618Z,1.80
2018-06-22T00:20:37.519Z,2.20
2018-06-22T00:23:07.567Z,2.30
2018-06-22T00:25:40.542Z,2.53
2018-06-22T00:28:15.642Z,1.77
2018-06-22T00:30:45.429Z,2.17
2018-06-22T00:33:17.320Z,1.67
2018-06-22T00:35:48.730Z,2.17
2018-06-22T00:38:20.012Z,1.90
2018-06-22T00:40:55.619Z,1.80
2018-06-22T00:43:28.564Z,1.57
2018-06-22T00:46:01.903Z,2.00
2018-06-22T00:48:35.872Z,1.50
2018-06-22T00:51:09.437Z,1.80
2018-06-22T00:53:52.700Z,2.03
2018-06-22T00:56:22.634Z,1.80
2018-06-22T00:58:54.021Z,1.80
2018-06-22T01:01:41.404Z,1.73
2018-06-22T01:04:15.189Z,2.40
2018-06-22T01:06:52.558Z,1.80
2018-06-22T01:09:29.645Z,2.13
2018-06-22T01:12:00.397Z,1.80
2018-06-22T01:14:38.694Z,1.80
2018-06-22T01:17:20.513Z,1.60
2018-06-22T01:19:52.782Z,1.50
2018-06-22T01:22:24.595Z,2.40
2018-06-22T01:24:56.447Z,1.97
2018-06-22T01:27:28.756Z,2.17
2018-06-22T01:30:00.187Z,2.00
2018-06-22T01:32:29.975Z,2.07
2018-06-22T01:35:01.110Z,1.90
2018-06-22T01:37:34.624Z,1.90
2018-06-22T01:40:10.670Z,1.10
2018-06-22T01:42:41.027Z,1.50
2018-06-22T01:45:13.341Z,1.73
2018-06-22T01:47:45.454Z,1.60
2018-06-22T01:50:17.247Z,1.87
2018-06-22T01:52:48.321Z,1.60
2018-06-22T01:55:21.518Z,1.70
2018-06-22T01:57:55.105Z,1.87
2018-06-22T02:00:30.833Z,2.40
2018-06-22T02:03:02.021Z,1.70
2018-06-22T02:05:34.138Z,2.20
2018-06-22T02:08:07.916Z,1.70
2018-06-22T02:10:38.038Z,1.70
2018-06-22T02:13:11.676Z,2.00
2018-06-22T02:15:43.151Z,2.10
2018-06-22T02:18:14.783Z,2.10
2018-06-22T02:20:46.775Z,1.33
2018-06-22T02:23:17.250Z,1.60
2018-06-22T02:25:48.377Z,1.93
2018-06-22T02:28:20.799Z,1.50
2018-06-22T02:30:55.293Z,1.40
2018-06-22T02:33:25.352Z,1.40
2018-06-22T02:35:55.629Z,1.70
2018-06-22T02:38:25.611Z,1.70
2018-06-22T02:40:58.619Z,1.70
2018-06-22T02:43:28.550Z,1.60
2018-06-22T02:45:58.720Z,1.63
2018-06-22T02:48:30.524Z,1.77
2018-06-22T02:51:01.266Z,1.57
2018-06-22T02:53:34.151Z,1.70
2018-06-22T02:56:04.018Z,1.87
2018-06-22T02:58:35.458Z,1.53
2018-06-22T03:01:05.563Z,1.47
2018-06-22T03:03:35.369Z,1.67
2018-06-22T03:06:06.464Z,1.83
2018-06-22T03:08:36.727Z,1.90
2018-06-22T03:11:13.110Z,1.50
2018-06-22T03:13:44.201Z,1.73
2018-06-22T03:16:14.572Z,2.20
2018-06-22T03:18:45.390Z,1.67
2018-06-22T03:21:15.395Z,1.60
2018-06-22T03:23:45.537Z,1.67
2018-06-22T03:26:15.543Z,1.60
2018-06-22T03:28:45.903Z,1.80
2018-06-22T03:31:15.894Z,1.90
2018-06-22T03:33:45.857Z,2.00
2018-06-22T03:36:15.902Z,1.63
2018-06-22T03:38:46.128Z,1.37
2018-06-22T03:41:16.162Z,1.77
2018-06-22T03:43:47.345Z,1.63
2018-06-22T03:46:18.025Z,2.30
2018-06-22T03:48:48.310Z,1.43
2018-06-22T03:51:19.580Z,1.70
2018-06-22T03:53:51.464Z,1.90
2018-06-22T03:56:22.620Z,1.50
2018-06-22T03:58:53.617Z,1.93
2018-06-22T04:01:23.724Z,2.20
2018-06-22T04:03:56.680Z,2.07
2018-06-22T04:06:26.868Z,1.80
2018-06-22T04:52:39.486Z,1.40
2018-06-22T04:55:11.552Z,2.07
2018-06-22T04:57:40.986Z,1.60
2018-06-22T05:00:11.872Z,1.53
2018-06-22T05:02:42.073Z,2.03
2018-06-22T05:05:12.856Z,1.80
2018-06-22T05:07:42.653Z,1.73
2018-06-22T05:10:12.993Z,1.83
2018-06-22T05:12:43.549Z,1.77
2018-06-22T05:15:14.889Z,1.53
2018-06-22T05:17:44.983Z,1.83
2018-06-22T05:20:15.219Z,1.50
2018-06-22T05:22:45.756Z,2.00
2018-06-22T05:25:17.576Z,1.80
2018-06-22T05:27:48.480Z,1.60
2018-06-22T05:30:19.156Z,1.50
2018-06-22T05:32:50.300Z,1.30
2018-06-22T05:35:20.125Z,1.77
2018-06-22T05:37:49.977Z,1.80
2018-06-22T05:40:19.947Z,1.63
2018-06-22T05:42:50.266Z,1.67
2018-06-22T05:45:20.645Z,1.30
2018-06-22T05:47:50.665Z,1.77
2018-06-22T05:50:21.380Z,1.67
2018-06-22T05:52:51.499Z,1.60
2018-06-22T05:55:21.869Z,1.33
2018-06-22T05:57:52.825Z,1.50
2018-06-22T06:00:23.615Z,2.10
2018-06-22T06:02:54.337Z,1.40
2018-06-22T06:05:26.040Z,1.50
2018-06-22T06:07:55.907Z,1.70
2018-06-22T06:10:26.212Z,1.87
2018-06-22T06:12:58.118Z,1.47
2018-06-22T06:15:34.332Z,1.53
2018-06-22T06:18:09.977Z,2.17
2018-06-22T06:20:44.143Z,1.63
2018-06-22T06:23:14.590Z,1.70
2018-06-22T06:25:46.928Z,1.50
2018-06-22T06:28:18.426Z,1.70
2018-06-22T06:30:52.115Z,1.63
2018-06-22T06:33:23.583Z,1.70
2018-06-22T06:36:00.307Z,1.63
2018-06-22T06:38:41.377Z,1.73
2018-06-22T06:41:12.741Z,1.50
2018-06-22T06:43:43.344Z,1.70
2018-06-22T06:46:14.774Z,1.40
2018-06-22T06:48:47.177Z,1.40
2018-06-22T06:51:17.308Z,1.80
2018-06-22T06:53:52.039Z,1.30
2018-06-22T06:56:22.885Z,1.77
2018-06-22T06:58:58.321Z,1.50
2018-06-22T07:01:28.786Z,1.80
2018-06-22T07:04:00.640Z,1.40
2018-06-22T07:06:30.912Z,1.77
2018-06-22T07:09:01.153Z,1.90
2018-06-22T07:11:37.008Z,1.53
2018-06-22T07:14:10.565Z,1.70
2018-06-22T07:16:41.028Z,1.70
2018-06-22T07:19:30.266Z,1.90
2018-06-22T07:22:03.741Z,1.50
2018-06-22T07:24:34.334Z,2.07
2018-06-22T07:27:12.365Z,1.80
2018-06-22T07:29:50.343Z,1.60
2018-06-22T07:32:21.496Z,2.10
2018-06-22T07:34:52.596Z,1.73
2018-06-22T07:37:24.187Z,1.83
2018-06-22T07:39:55.597Z,1.73
2018-06-22T07:42:27.890Z,1.93
2018-06-22T07:44:58.811Z,1.50
2018-06-22T07:47:29.182Z,2.13
2018-06-22T07:50:02.652Z,2.07
2018-06-22T07:52:34.916Z,1.77
2018-06-22T07:55:06.423Z,3.67
2018-06-22T07:57:38.680Z,1.87
2018-06-22T08:00:10.266Z,1.90
2018-06-22T08:02:43.120Z,1.60
2018-06-22T08:05:14.061Z,2.10
2018-06-22T08:07:46.090Z,1.80
2018-06-22T08:10:17.364Z,1.77
2018-06-22T08:12:51.203Z,1.60
2018-06-22T08:15:22.070Z,1.63
2018-06-22T08:17:53.245Z,1.80
2018-06-22T08:20:24.947Z,1.50
2018-06-22T08:22:56.892Z,1.50
2018-06-22T08:25:27.393Z,1.90
2018-06-22T08:27:58.938Z,1.67
2018-06-22T08:30:31.009Z,1.70
2018-06-22T08:33:04.864Z,1.70
2018-06-22T08:35:36.050Z,1.90
2018-06-22T08:38:08.490Z,1.90
2018-06-22T08:40:46.495Z,2.10
2018-06-22T08:43:17.360Z,1.90
2018-06-22T08:45:48.876Z,1.60
2018-06-22T08:48:23.532Z,1.60
2018-06-22T08:50:56.036Z,2.10
2018-06-22T08:53:26.094Z,2.00
2018-06-22T08:55:59.962Z,2.13
2018-06-22T08:58:30.476Z,1.80
2018-06-22T09:01:04.967Z,2.27
2018-06-22T09:03:35.751Z,1.90
2018-06-22T09:06:10.244Z,2.03
2018-06-22T09:08:40.564Z,2.10
2018-06-22T09:11:17.328Z,1.80
2018-06-22T09:13:48.488Z,2.13
2018-06-22T09:16:19.348Z,1.90
2018-06-22T09:18:57.001Z,2.20
2018-06-22T09:21:30.268Z,1.80
2018-06-22T09:24:01.713Z,2.53
2018-06-22T09:26:39.419Z,2.73
2018-06-22T09:29:10.345Z,2.30
2018-06-22T09:31:43.993Z,2.20
2018-06-22T09:34:16.153Z,1.80
2018-06-22T09:36:49.452Z,1.93
2018-06-22T09:39:21.485Z,2.13
2018-06-22T09:41:53.081Z,2.47
2018-06-22T09:44:42.078Z,2.40
2018-06-22T09:47:16.555Z,2.43
2018-06-22T09:49:47.950Z,1.97
2018-06-22T09:52:20.345Z,2.17
2018-06-22T09:54:53.601Z,2.00
2018-06-22T09:57:33.563Z,2.10
2018-06-22T10:00:09.932Z,2.60
2018-06-22T10:02:44.934Z,2.27
2018-06-22T10:05:19.290Z,1.90
2018-06-22T10:07:53.507Z,2.20
2018-06-22T10:10:28.285Z,2.27
2018-06-22T10:13:04.024Z,2.17
2018-06-22T10:15:36.183Z,2.10
2018-06-22T10:18:17.780Z,2.40
2018-06-22T10:20:54.689Z,2.30
2018-06-22T10:23:52.573Z,2.50
2018-06-22T10:26:26.238Z,2.67
2018-06-22T10:29:00.928Z,2.07
2018-06-22T10:31:33.095Z,2.03
2018-06-22T10:34:05.796Z,2.37
2018-06-22T10:36:37.194Z,2.27
2018-06-22T10:39:12.838Z,2.30
2018-06-22T10:41:46.955Z,2.30
2018-06-22T10:44:23.061Z,2.23
2018-06-22T10:46:59.498Z,2.43
2018-06-22T10:49:37.055Z,1.63
2018-06-22T10:52:11.531Z,2.00
2018-06-22T10:54:48.245Z,2.03
2018-06-22T10:57:23.057Z,2.17
2018-06-22T10:59:57.493Z,1.90
2018-06-22T11:02:34.432Z,2.33
2018-06-22T11:05:17.453Z,2.90
2018-06-22T11:07:49.634Z,2.60
2018-06-22T11:10:24.007Z,1.87
2018-06-22T11:13:09.393Z,2.30
2018-06-22T11:15:52.056Z,2.10
2018-06-22T11:18:27.040Z,2.00
2018-06-22T11:21:07.459Z,2.20
2018-06-22T11:23:45.785Z,2.10
2018-06-22T11:26:21.602Z,2.03
2018-06-22T11:29:01.245Z,2.17
2018-06-22T11:31:36.124Z,2.27
2018-06-22T11:34:11.851Z,2.10
2018-06-22T11:36:47.961Z,2.37
2018-06-22T11:39:23.363Z,2.60
2018-06-22T11:42:01.480Z,2.40
2018-06-22T11:44:37.542Z,1.83
2018-06-22T11:47:14.573Z,2.33
2018-06-22T11:52:48.848Z,2.60
2018-06-22T11:55:28.685Z,2.40
2018-06-22T11:58:12.305Z,2.43
2018-06-22T12:00:44.337Z,2.40
2018-06-22T12:03:28.412Z,2.40
2018-06-22T12:06:00.031Z,2.30
2018-06-22T12:08:36.243Z,2.50
2018-06-22T12:11:11.982Z,2.20
2018-06-22T12:13:46.287Z,2.20
2018-06-22T12:16:30.787Z,2.40
2018-06-22T12:19:04.349Z,2.30
2018-06-22T12:21:40.020Z,2.70
2018-06-22T12:24:13.615Z,2.17
2018-06-22T12:26:49.685Z,2.07
2018-06-22T12:29:21.898Z,2.00
2018-06-22T12:31:54.112Z,2.17
2018-06-22T12:34:26.606Z,2.90
2018-06-22T12:36:58.706Z,2.80
2018-06-22T12:39:31.755Z,2.40
2018-06-22T12:42:05.785Z,2.40
2018-06-22T12:44:44.273Z,2.30
2018-06-22T12:47:17.646Z,2.10
2018-06-22T12:49:59.019Z,1.80
2018-06-22T12:52:30.872Z,2.17
2018-06-22T12:55:07.302Z,2.37
2018-06-22T12:57:47.157Z,2.07
2018-06-22T13:00:24.006Z,2.00
2018-06-22T13:02:57.581Z,2.37
2018-06-22T13:05:36.581Z,2.43
2018-06-22T13:08:13.165Z,2.30
2018-06-22T13:10:53.497Z,2.30
2018-06-22T13:13:41.376Z,2.07
2018-06-22T13:16:21.710Z,2.10
2018-06-22T13:18:56.889Z,2.00
2018-06-22T13:21:30.578Z,2.73
2018-06-22T13:24:04.920Z,2.37
2018-06-22T13:26:39.172Z,2.10
2018-06-22T13:29:20.731Z,2.10
2018-06-22T13:31:59.417Z,2.40
2018-06-22T13:34:33.585Z,1.87
2018-06-22T13:37:07.504Z,2.53
2018-06-22T13:39:37.525Z,2.40
2018-06-22T13:42:09.246Z,2.27
2018-06-22T13:44:39.464Z,2.83
2018-06-22T13:47:09.972Z,2.50
2018-06-22T13:49:40.466Z,2.13
2018-06-22T13:52:15.689Z,2.00
2018-06-22T13:54:50.294Z,2.67
2018-06-22T13:57:22.617Z,2.03
2018-06-22T13:59:54.557Z,1.80
2018-06-22T14:02:27.616Z,1.90
2018-06-22T14:05:08.635Z,1.63
2018-06-22T14:07:42.621Z,1.40
2018-06-22T14:10:14.840Z,1.40
2018-06-22T14:12:52.820Z,1.97
2018-06-22T14:15:31.409Z,1.93
2018-06-22T14:18:07.793Z,1.77
2018-06-22T14:20:50.185Z,1.60
2018-06-22T14:24:45.704Z,1.93
2018-06-22T14:27:34.442Z,2.30
2018-06-22T14:30:08.800Z,2.13
2018-06-22T14:32:41.008Z,2.00
2018-06-22T14:38:42.771Z,1.97
2018-06-22T14:41:32.237Z,2.00
2018-06-22T14:44:03.358Z,1.90
2018-06-22T14:46:33.733Z,2.03
2018-06-22T14:49:20.356Z,2.20
2018-06-22T14:51:55.001Z,2.23
2018-06-22T14:54:31.140Z,2.20
2018-06-22T14:57:08.835Z,2.27
2018-06-22T14:59:45.842Z,1.80
2018-06-22T15:02:21.937Z,2.07
2018-06-22T15:04:58.552Z,1.80
2018-06-22T15:07:36.225Z,1.70
2018-06-22T15:10:09.509Z,1.57
2018-06-22T15:12:41.909Z,1.70
2018-06-22T15:15:14.361Z,1.37
2018-06-22T15:17:53.192Z,1.50
2018-06-22T15:20:48.992Z,1.93
2018-06-22T15:23:22.463Z,1.13
2018-06-22T15:25:53.871Z,1.40
2018-06-22T15:28:42.236Z,1.40
2018-06-22T15:31:13.559Z,1.47
2018-06-22T15:33:51.420Z,1.20
2018-06-22T15:36:44.375Z,1.20
2018-06-22T15:39:28.354Z,1.50
2018-06-22T15:42:03.217Z,1.53
2018-06-22T15:44:38.928Z,1.33
2018-06-22T15:47:18.372Z,1.30
2018-06-22T15:49:53.706Z,1.47
2018-06-22T15:52:29.741Z,1.80
2018-06-22T15:55:17.145Z,1.40
2018-06-22T15:57:48.117Z,1.53
2018-06-22T16:00:22.053Z,1.90
2018-06-22T16:02:58.022Z,1.70
2018-06-22T16:05:29.216Z,1.97
2018-06-22T16:08:00.409Z,1.67
2018-06-22T16:10:31.235Z,1.83
2018-06-22T16:13:01.529Z,2.10
2018-06-22T16:15:39.907Z,1.97
2018-06-22T16:18:15.942Z,1.77
2018-06-22T16:25:08.597Z,1.30
2018-06-22T16:27:43.206Z,2.30
2018-06-22T16:30:15.066Z,1.50
2018-06-22T16:32:53.350Z,1.90
2018-06-22T16:35:28.316Z,1.73
2018-06-22T16:38:03.914Z,1.70
2018-06-22T16:40:34.306Z,1.40
2018-06-22T16:43:05.949Z,1.60
2018-06-22T16:45:40.214Z,1.80
2018-06-22T16:48:16.671Z,1.67
2018-06-22T16:50:47.569Z,1.63
2018-06-22T16:53:24.786Z,1.63
2018-06-22T16:55:55.440Z,1.37
2018-06-22T16:58:53.737Z,1.30
2018-06-22T17:01:24.853Z,1.63
2018-06-22T17:03:54.874Z,1.03
2018-06-22T17:06:25.812Z,1.10
2018-06-22T17:09:02.216Z,1.30
2018-06-22T17:11:38.338Z,1.30
2018-06-22T17:14:13.894Z,1.20
2018-06-22T17:16:48.590Z,1.60
2018-06-22T17:19:24.578Z,1.50
2018-06-22T17:22:01.406Z,1.40
2018-06-22T17:24:33.637Z,1.50
2018-06-22T17:27:04.503Z,1.73
2018-06-22T17:29:37.560Z,1.70
2018-06-22T17:32:09.140Z,1.30
2018-06-22T17:34:54.830Z,1.73
2018-06-22T17:37:55.052Z,1.60
2018-06-22T17:40:26.483Z,1.57
2018-06-22T17:42:58.354Z,2.07
2018-06-22T17:45:31.950Z,1.60
2018-06-22T17:48:05.315Z,1.50
2018-06-22T17:50:36.686Z,1.87
2018-06-22T17:53:16.412Z,1.40
2018-06-22T17:55:54.792Z,1.70
2018-06-22T17:58:29.072Z,1.90
2018-06-22T18:01:09.577Z,1.60
2018-06-22T18:03:50.540Z,2.00
2018-06-22T18:06:28.803Z,1.73
2018-06-22T18:09:04.525Z,2.00
2018-06-22T18:11:44.360Z,1.93
2018-06-22T18:14:18.149Z,1.70
2018-06-22T18:16:58.411Z,2.00
2018-06-22T18:19:35.302Z,2.17
2018-06-22T18:22:12.401Z,1.90
2018-06-22T18:24:48.400Z,2.03
2018-06-22T18:27:41.583Z,2.57
2018-06-22T18:30:22.689Z,2.03
2018-06-22T18:32:54.142Z,1.80
2018-06-22T18:35:24.656Z,2.00
2018-06-22T18:38:03.432Z,1.93
2018-06-22T18:43:30.392Z,2.23
2018-06-22T18:46:15.253Z,2.43
2018-06-22T18:48:48.727Z,2.20
2018-06-22T18:51:33.857Z,1.80
2018-06-22T18:54:11.545Z,2.33
2018-06-22T18:56:49.952Z,1.93
2018-06-22T18:59:28.566Z,1.80
2018-06-22T19:02:07.480Z,1.40
2018-06-22T19:04:39.594Z,1.63
2018-06-22T19:07:14.799Z,2.07
2018-06-22T19:09:47.483Z,1.70
2018-06-22T19:12:21.930Z,1.40
2018-06-22T19:14:54.299Z,1.50
2018-06-22T19:17:31.880Z,1.80
2018-06-22T19:20:07.726Z,1.70
2018-06-22T19:22:52.640Z,1.63
2018-06-22T19:25:32.407Z,1.90
2018-06-22T19:28:05.766Z,2.00
2018-06-22T19:30:51.450Z,1.87
2018-06-22T19:33:27.158Z,1.60
2018-06-22T19:36:08.604Z,1.53
2018-06-22T19:38:47.937Z,1.97
2018-06-22T19:41:20.849Z,1.77
2018-06-22T19:43:59.471Z,1.90
2018-06-22T19:46:40.703Z,2.00
2018-06-22T19:49:17.564Z,1.40
2018-06-22T19:51:55.338Z,1.80
2018-06-22T19:54:28.452Z,1.80
2018-06-22T19:57:05.438Z,1.87
2018-06-22T19:59:36.285Z,1.57
2018-06-22T20:02:11.084Z,1.40
2018-06-22T20:04:47.487Z,1.60
2018-06-22T20:07:21.256Z,1.50
2018-06-22T20:09:56.900Z,2.03
2018-06-22T20:12:29.011Z,2.00
2018-06-22T20:15:02.591Z,1.53
2018-06-22T20:17:47.804Z,1.70
2018-06-22T20:20:24.977Z,1.97
2018-06-22T20:22:57.568Z,1.80
2018-06-22T20:25:36.505Z,1.50
2018-06-22T20:28:11.739Z,1.73
2018-06-22T20:30:53.672Z,1.53
2018-06-22T20:33:28.633Z,1.73
2018-06-22T20:36:10.333Z,1.87
2018-06-22T20:38:46.845Z,1.87
2018-06-22T20:41:27.493Z,1.53
2018-06-22T20:44:03.741Z,2.10
2018-06-22T20:46:48.413Z,1.80
2018-06-22T20:49:25.835Z,1.63
2018-06-22T20:52:04.048Z,1.97
2018-06-22T20:54:37.420Z,2.27
2018-06-22T20:57:18.695Z,2.03
2018-06-22T20:59:54.442Z,2.07
2018-06-22T21:02:26.775Z,1.90
2018-06-22T21:05:05.503Z,2.53
2018-06-22T21:07:42.081Z,2.10
2018-06-22T21:10:17.723Z,2.37
2018-06-22T21:12:51.357Z,2.10
2018-06-22T21:15:24.309Z,2.20
2018-06-22T21:20:37.585Z,1.93
2018-06-22T21:23:10.904Z,2.03
2018-06-22T21:25:44.845Z,2.80
2018-06-22T21:28:21.606Z,2.60
2018-06-22T21:30:58.580Z,2.47
2018-06-22T21:33:42.972Z,2.53
2018-06-22T21:36:26.530Z,2.90
2018-06-22T21:39:04.882Z,2.33
2018-06-22T21:41:44.811Z,2.30
2018-06-22T21:44:17.191Z,2.67
2018-06-22T21:46:54.668Z,2.67
2018-06-22T21:49:26.292Z,2.87
2018-06-22T21:51:59.957Z,3.07
2018-06-22T21:54:58.465Z,2.80
2018-06-22T21:57:41.942Z,2.67
2018-06-22T22:00:13.872Z,2.57
2018-06-22T22:02:47.013Z,2.53
2018-06-22T22:05:21.980Z,3.00
2018-06-22T22:07:59.080Z,3.10
2018-06-22T22:10:36.233Z,3.00
2018-06-22T22:13:07.594Z,2.80
2018-06-22T22:15:38.361Z,2.97
2018-06-22T22:18:09.643Z,2.80
2018-06-22T22:20:41.087Z,2.83
2018-06-22T22:23:15.353Z,3.20
2018-06-22T22:25:49.837Z,2.67
2018-06-22T22:28:21.056Z,3.50
2018-06-22T22:30:55.295Z,3.10
2018-06-22T22:33:25.599Z,2.50
2018-06-22T22:36:03.503Z,2.60
2018-06-22T22:55:19.497Z,4.27
2018-06-22T22:57:56.337Z,3.13
2018-06-22T23:00:29.955Z,3.10
2018-06-22T23:03:00.061Z,3.30
2018-06-22T23:05:35.144Z,4.57
2018-06-22T23:08:06.638Z,3.93
2018-06-22T23:10:37.114Z,3.73
2018-06-22T23:13:08.037Z,2.70
2018-06-22T23:15:40.200Z,3.20
2018-06-22T23:18:15.465Z,4.43
2018-06-22T23:20:48.568Z,3.27
2018-06-22T23:23:30.917Z,4.10
2018-06-22T23:26:01.134Z,3.10
2018-06-22T23:28:33.338Z,3.10
2018-06-22T23:31:07.623Z,2.60
2018-06-22T23:33:38.428Z,3.43
2018-06-22T23:36:08.914Z,4.50
2018-06-22T23:38:39.068Z,3.67
2018-06-22T23:41:09.353Z,4.13
2018-06-22T23:43:39.634Z,3.93
2018-06-22T23:46:11.158Z,3.67
2018-06-22T23:48:42.649Z,3.47
2018-06-22T23:51:14.781Z,4.73
2018-06-22T23:53:48.611Z,4.17
2018-06-22T23:56:19.935Z,4.17
2018-06-22T23:58:53.796Z,3.77
